createdAt,value
2023-04-30T00:02:15.061Z,4.00
2023-04-30T00:04:41.801Z,4.00
2023-04-30T00:07:08.616Z,4.00
2023-04-30T00:09:35.693Z,3.90
2023-04-30T00:12:02.493Z,3.90
2023-04-30T00:14:29.267Z,3.80
2023-04-30T00:16:56.101Z,3.80
2023-04-30T00:19:22.953Z,3.80
2023-04-30T00:21:49.741Z,3.90
2023-04-30T00:24:16.547Z,3.90
2023-04-30T00:26:43.981Z,3.90
2023-04-30T00:29:12.330Z,3.90
2023-04-30T00:31:39.447Z,3.90
2023-04-30T00:34:06.270Z,3.80
2023-04-30T00:36:33.355Z,3.90
2023-04-30T00:39:00.163Z,3.80
2023-04-30T00:41:28.427Z,3.80
2023-04-30T00:43:55.259Z,3.80
2023-04-30T00:46:22.240Z,3.80
2023-04-30T00:48:49.855Z,3.70
2023-04-30T00:51:16.757Z,3.70
2023-04-30T00:53:44.185Z,3.70
2023-04-30T00:56:11.164Z,3.60
2023-04-30T00:58:38.052Z,3.50
2023-04-30T01:01:05.085Z,3.50
2023-04-30T01:03:32.230Z,3.40
2023-04-30T01:05:59.155Z,3.50
2023-04-30T01:08:26.392Z,3.40
2023-04-30T01:11:21.547Z,3.40
2023-04-30T01:14:08.235Z,3.40
2023-04-30T01:16:52.494Z,3.40
2023-04-30T01:19:31.098Z,3.30
2023-04-30T01:22:04.443Z,3.30
2023-04-30T01:24:59.558Z,3.30
2023-04-30T01:28:02.617Z,3.20
2023-04-30T01:30:31.826Z,3.10
2023-04-30T01:32:59.193Z,3.00
2023-04-30T01:35:41.378Z,3.00
2023-04-30T01:38:25.050Z,2.90
2023-04-30T01:41:01.351Z,2.90
2023-04-30T01:43:39.893Z,2.90
2023-04-30T01:46:18.603Z,2.90
2023-04-30T01:49:10.912Z,2.80
2023-04-30T01:51:47.214Z,2.80
2023-04-30T01:54:32.229Z,2.80
2023-04-30T01:57:27.755Z,2.80
2023-04-30T01:59:54.917Z,2.80
2023-04-30T02:02:22.128Z,2.80
2023-04-30T02:04:49.003Z,2.80
2023-04-30T02:07:38.184Z,2.70
2023-04-30T02:10:06.576Z,2.80
2023-04-30T02:12:33.451Z,2.70
2023-04-30T02:15:00.490Z,2.70
2023-04-30T02:17:27.281Z,2.70
2023-04-30T02:19:54.133Z,2.70
2023-04-30T02:22:21.139Z,2.70
2023-04-30T02:24:47.993Z,2.60
2023-04-30T02:27:14.929Z,2.60
2023-04-30T02:29:41.794Z,2.50
2023-04-30T02:32:09.027Z,2.40
2023-04-30T02:34:35.888Z,2.30
2023-04-30T02:37:03.289Z,2.30
2023-04-30T02:39:30.051Z,2.20
2023-04-30T02:41:56.893Z,2.20
2023-04-30T02:44:24.357Z,2.10
2023-04-30T02:46:51.245Z,2.10
2023-04-30T02:52:20.168Z,2.00
2023-04-30T02:54:46.951Z,2.00
2023-04-30T02:57:13.762Z,1.90
2023-04-30T02:59:40.616Z,1.90
2023-04-30T03:02:07.410Z,1.80
2023-04-30T03:04:34.171Z,1.80
2023-04-30T03:07:01.076Z,1.70
2023-04-30T03:09:28.035Z,1.70
2023-04-30T03:11:54.822Z,1.70
2023-04-30T03:14:21.539Z,1.70
2023-04-30T03:16:48.459Z,1.70
2023-04-30T03:19:15.275Z,1.60
2023-04-30T03:21:42.043Z,1.70
2023-04-30T03:24:08.856Z,1.60
2023-04-30T03:26:35.730Z,1.60
2023-04-30T03:29:02.548Z,1.60
2023-04-30T03:31:29.396Z,1.50
2023-04-30T03:33:56.269Z,1.50
2023-04-30T03:36:23.075Z,1.50
2023-04-30T03:38:49.954Z,1.50
2023-04-30T03:41:16.786Z,1.40
2023-04-30T03:44:22.489Z,1.40
2023-04-30T03:46:49.425Z,1.40
2023-04-30T03:49:16.354Z,1.40
2023-04-30T03:51:43.187Z,1.40
2023-04-30T03:54:10.234Z,1.40
2023-04-30T03:56:38.072Z,1.40
2023-04-30T03:59:06.160Z,1.30
2023-04-30T04:01:33.226Z,1.40
2023-04-30T04:04:00.156Z,1.40
2023-04-30T04:06:26.997Z,1.40
2023-04-30T04:08:54.341Z,1.40
2023-04-30T04:14:24.588Z,1.40
2023-04-30T04:16:51.567Z,1.40
2023-04-30T04:19:18.507Z,1.50
2023-04-30T04:21:45.395Z,1.50
2023-04-30T04:24:12.431Z,1.60
2023-04-30T04:26:39.179Z,1.60
2023-04-30T04:29:06.361Z,1.60
2023-04-30T04:31:33.260Z,1.70
2023-04-30T04:34:04.451Z,1.70
2023-04-30T04:36:33.400Z,1.70
2023-04-30T04:39:03.904Z,1.80
2023-04-30T04:41:32.775Z,1.80
2023-04-30T04:44:01.761Z,1.80
2023-04-30T04:46:29.595Z,1.80
2023-04-30T04:48:56.555Z,1.90
2023-04-30T04:51:23.543Z,2.10
2023-04-30T04:53:50.887Z,2.20
2023-04-30T04:56:17.659Z,2.30
2023-04-30T04:58:45.674Z,2.40
2023-04-30T05:01:12.484Z,2.50
2023-04-30T05:03:39.446Z,2.70
2023-04-30T05:06:06.437Z,2.80
2023-04-30T05:08:33.364Z,2.90
2023-04-30T05:11:00.131Z,3.00
2023-04-30T05:14:00.853Z,3.10
2023-04-30T05:16:27.746Z,3.20
2023-04-30T05:18:54.631Z,3.30
2023-04-30T05:21:21.439Z,3.40
2023-04-30T05:23:48.204Z,3.50
2023-04-30T05:26:15.155Z,3.60
2023-04-30T05:28:42.042Z,3.70
2023-04-30T05:31:08.929Z,3.80
2023-04-30T05:33:37.149Z,3.90
2023-04-30T05:36:04.150Z,4.00
2023-04-30T05:38:30.995Z,4.10
2023-04-30T05:40:57.829Z,4.30
2023-04-30T05:43:24.724Z,4.40
2023-04-30T05:45:51.482Z,4.50
2023-04-30T05:48:18.323Z,4.60
2023-04-30T05:50:45.127Z,4.80
2023-04-30T05:53:11.957Z,4.90
2023-04-30T05:55:39.027Z,4.90
2023-04-30T05:58:06.420Z,5.00
2023-04-30T06:00:33.258Z,5.10
2023-04-30T06:03:00.000Z,5.20
2023-04-30T06:05:27.665Z,5.30
2023-04-30T06:07:54.498Z,5.50
2023-04-30T06:10:21.350Z,5.70
2023-04-30T06:12:48.387Z,5.90
2023-04-30T06:15:15.370Z,6.20
2023-04-30T06:17:42.121Z,6.50
2023-04-30T06:20:09.601Z,6.80
2023-04-30T06:22:36.433Z,7.10
2023-04-30T06:25:03.592Z,7.20
2023-04-30T06:27:32.210Z,7.30
2023-04-30T06:30:00.981Z,7.60
2023-04-30T06:32:28.127Z,7.80
2023-04-30T06:34:55.656Z,8.20
2023-04-30T06:37:22.565Z,8.50
2023-04-30T06:39:49.695Z,8.90
2023-04-30T06:42:16.444Z,9.30
2023-04-30T06:44:43.322Z,9.50
2023-04-30T06:47:10.081Z,9.80
2023-04-30T06:49:36.879Z,10.20
2023-04-30T06:52:04.521Z,10.10
2023-04-30T06:54:31.369Z,9.90
2023-04-30T06:56:58.140Z,10.40
2023-04-30T06:59:24.911Z,10.50
2023-04-30T07:01:51.775Z,11.60
2023-04-30T07:04:19.580Z,11.50
2023-04-30T07:06:46.573Z,11.70
2023-04-30T07:09:15.640Z,11.80
2023-04-30T07:11:42.862Z,11.30
2023-04-30T07:14:09.589Z,11.90
2023-04-30T07:16:36.367Z,11.90
2023-04-30T07:19:03.392Z,12.40
2023-04-30T07:22:30.568Z,13.00
2023-04-30T07:24:57.654Z,12.80
2023-04-30T07:27:24.449Z,12.60
2023-04-30T07:29:51.932Z,11.80
2023-04-30T07:32:18.792Z,11.30
2023-04-30T07:34:45.584Z,10.60
2023-04-30T07:37:13.404Z,9.90
2023-04-30T07:39:40.450Z,9.70
2023-04-30T07:42:07.258Z,9.70
2023-04-30T07:44:33.998Z,10.90
2023-04-30T07:47:00.841Z,12.50
2023-04-30T07:49:28.212Z,13.20
2023-04-30T07:51:55.083Z,13.10
2023-04-30T07:54:22.015Z,13.40
2023-04-30T07:56:48.986Z,12.80
2023-04-30T07:59:16.021Z,12.30
2023-04-30T08:01:42.900Z,11.50
2023-04-30T08:04:09.781Z,10.80
2023-04-30T08:06:36.801Z,11.70
2023-04-30T08:09:04.615Z,12.70
2023-04-30T08:11:34.720Z,13.00
2023-04-30T08:14:01.607Z,12.50
2023-04-30T08:16:28.414Z,11.70
2023-04-30T08:18:55.319Z,11.50
2023-04-30T08:21:22.146Z,11.10
2023-04-30T08:23:49.805Z,12.20
2023-04-30T08:26:16.684Z,13.20
2023-04-30T08:28:43.499Z,13.40
2023-04-30T08:31:10.427Z,14.30
2023-04-30T08:33:37.313Z,14.10
2023-04-30T08:36:04.403Z,13.00
2023-04-30T08:38:31.153Z,12.40
2023-04-30T08:41:13.063Z,12.10
2023-04-30T08:43:41.361Z,11.90
2023-04-30T08:46:08.666Z,12.10
2023-04-30T08:48:35.765Z,13.20
2023-04-30T08:51:03.944Z,13.90
2023-04-30T08:53:42.098Z,14.30
2023-04-30T08:56:11.308Z,15.10
2023-04-30T08:58:38.083Z,15.50
2023-04-30T09:01:07.838Z,15.00
2023-04-30T09:03:34.929Z,14.70
2023-04-30T09:06:01.774Z,14.60
2023-04-30T09:08:45.303Z,14.40
2023-04-30T09:11:24.423Z,14.80
2023-04-30T09:13:57.331Z,15.80
2023-04-30T09:16:25.883Z,16.00
2023-04-30T09:18:54.150Z,16.30
2023-04-30T09:21:35.112Z,16.00
2023-04-30T09:24:03.878Z,15.90
2023-04-30T09:26:38.955Z,15.30
2023-04-30T09:29:10.310Z,15.90
2023-04-30T09:31:38.683Z,15.80
2023-04-30T09:34:06.221Z,16.80
2023-04-30T09:36:34.347Z,17.30
2023-04-30T09:39:15.816Z,18.50
2023-04-30T09:41:43.830Z,18.20
2023-04-30T09:44:30.649Z,17.50
2023-04-30T09:46:58.684Z,17.90
2023-04-30T09:49:27.129Z,18.80
2023-04-30T09:52:03.268Z,19.40
2023-04-30T09:54:31.466Z,17.20
2023-04-30T09:57:00.133Z,17.50
2023-04-30T09:59:31.496Z,17.80
2023-04-30T10:02:08.816Z,17.80
2023-04-30T10:04:42.826Z,18.00
2023-04-30T10:07:14.066Z,17.50
2023-04-30T10:09:52.891Z,17.10
2023-04-30T10:12:39.960Z,17.90
2023-04-30T10:15:16.637Z,16.10
2023-04-30T10:17:47.636Z,15.10
2023-04-30T10:20:17.444Z,15.00
2023-04-30T10:22:46.266Z,15.50
2023-04-30T10:25:13.577Z,16.20
2023-04-30T10:27:40.689Z,17.00
2023-04-30T10:30:10.717Z,17.20
2023-04-30T10:33:16.966Z,17.80
2023-04-30T10:35:52.921Z,17.40
2023-04-30T10:38:25.168Z,16.70
2023-04-30T10:41:06.230Z,16.80
2023-04-30T10:43:35.876Z,17.60
2023-04-30T10:46:02.890Z,17.50
2023-04-30T10:48:31.150Z,16.60
2023-04-30T10:50:59.273Z,15.80
2023-04-30T10:53:27.948Z,16.60
2023-04-30T10:56:02.013Z,17.00
2023-04-30T10:58:36.296Z,18.00
2023-04-30T11:01:09.152Z,18.20
2023-04-30T11:03:37.451Z,19.80
2023-04-30T11:06:14.854Z,19.80
2023-04-30T11:08:46.831Z,19.00
2023-04-30T11:11:23.851Z,18.10
2023-04-30T11:14:01.678Z,17.80
2023-04-30T11:16:34.707Z,17.70
2023-04-30T11:19:11.929Z,18.30
2023-04-30T11:22:00.827Z,18.70
2023-04-30T11:25:05.782Z,17.20
2023-04-30T11:27:34.315Z,18.20
2023-04-30T11:30:02.969Z,18.00
2023-04-30T11:32:34.857Z,19.50
2023-04-30T11:35:07.456Z,20.20
2023-04-30T11:37:39.797Z,19.70
2023-04-30T11:40:11.463Z,20.10
2023-04-30T11:42:46.042Z,19.70
2023-04-30T11:45:20.968Z,19.20
2023-04-30T11:47:50.494Z,19.00
2023-04-30T11:50:28.848Z,19.40
2023-04-30T11:52:57.735Z,20.50
2023-04-30T11:55:26.240Z,21.00
2023-04-30T11:57:55.717Z,19.50
2023-04-30T12:00:28.153Z,18.90
2023-04-30T12:02:55.767Z,19.20
2023-04-30T12:05:24.945Z,19.00
2023-04-30T12:07:56.983Z,18.80
2023-04-30T12:10:25.790Z,18.50
2023-04-30T12:12:54.604Z,18.30
2023-04-30T12:15:26.711Z,18.90
2023-04-30T12:17:56.203Z,19.70
2023-04-30T12:20:25.873Z,19.60
2023-04-30T12:22:53.055Z,19.50
2023-04-30T12:25:21.956Z,20.30
2023-04-30T12:27:53.279Z,19.20
2023-04-30T12:30:21.629Z,19.20
2023-04-30T12:32:53.600Z,18.90
2023-04-30T12:35:22.541Z,18.90
2023-04-30T12:37:54.087Z,19.20
2023-04-30T12:40:26.703Z,19.50
2023-04-30T12:43:04.255Z,19.90
2023-04-30T12:45:51.512Z,20.90
2023-04-30T12:48:20.723Z,19.70
2023-04-30T12:50:55.230Z,19.50
2023-04-30T12:53:23.689Z,19.60
2023-04-30T12:56:29.120Z,20.30
2023-04-30T12:58:56.000Z,20.40
2023-04-30T13:01:24.521Z,19.60
2023-04-30T13:03:52.796Z,18.90
2023-04-30T13:06:22.594Z,19.20
2023-04-30T13:08:58.467Z,18.70
2023-04-30T13:11:26.889Z,19.60
2023-04-30T13:13:56.969Z,18.40
2023-04-30T13:16:27.342Z,19.20
2023-04-30T13:18:54.717Z,18.20
2023-04-30T13:21:21.735Z,18.30
2023-04-30T13:23:53.405Z,18.30
2023-04-30T13:26:23.323Z,19.50
2023-04-30T13:28:50.577Z,20.10
2023-04-30T13:31:17.520Z,20.30
2023-04-30T13:33:44.422Z,19.80
2023-04-30T13:36:11.283Z,18.80
2023-04-30T13:38:39.305Z,18.40
2023-04-30T13:41:09.726Z,17.90
2023-04-30T13:43:41.472Z,18.00
2023-04-30T13:46:09.334Z,17.70
2023-04-30T13:48:36.258Z,17.70
2023-04-30T13:51:03.031Z,18.10
2023-04-30T13:53:29.838Z,18.00
2023-04-30T13:55:59.237Z,18.10
2023-04-30T13:58:26.436Z,18.40
2023-04-30T14:00:53.365Z,17.90
2023-04-30T14:03:20.294Z,18.20
2023-04-30T14:05:48.035Z,17.60
2023-04-30T14:08:14.828Z,17.80
2023-04-30T14:10:41.607Z,17.80
2023-04-30T14:13:08.616Z,17.80
2023-04-30T14:15:35.767Z,18.00
2023-04-30T14:18:02.661Z,18.30
2023-04-30T14:20:29.457Z,18.30
2023-04-30T14:22:56.391Z,18.50
2023-04-30T14:25:23.954Z,18.30
2023-04-30T14:27:50.839Z,18.30
2023-04-30T14:30:17.665Z,18.10
2023-04-30T14:32:44.514Z,17.70
2023-04-30T14:35:11.391Z,18.30
2023-04-30T14:37:38.176Z,18.20
2023-04-30T14:40:07.924Z,17.60
2023-04-30T14:42:34.724Z,18.00
2023-04-30T14:45:01.614Z,17.50
2023-04-30T14:47:28.732Z,17.40
2023-04-30T14:49:55.914Z,17.30
2023-04-30T14:52:23.051Z,17.40
2023-04-30T14:54:49.819Z,17.10
2023-04-30T14:57:17.601Z,17.70
2023-04-30T14:59:44.412Z,17.80
2023-04-30T15:02:11.576Z,17.30
2023-04-30T15:04:38.474Z,17.40
2023-04-30T15:07:05.546Z,17.10
2023-04-30T15:09:32.341Z,17.70
2023-04-30T15:12:00.966Z,17.80
2023-04-30T15:14:27.767Z,17.30
2023-04-30T15:16:54.569Z,16.90
2023-04-30T15:19:21.439Z,17.20
2023-04-30T15:21:49.072Z,17.30
2023-04-30T15:24:16.055Z,17.00
2023-04-30T15:26:42.950Z,17.30
2023-04-30T15:29:10.495Z,18.10
2023-04-30T15:31:37.759Z,17.90
2023-04-30T15:34:04.627Z,17.80
2023-04-30T15:36:31.956Z,17.40
2023-04-30T15:38:58.906Z,17.00
2023-04-30T15:41:25.628Z,16.60
2023-04-30T15:43:52.522Z,16.60
2023-04-30T15:46:19.623Z,16.30
2023-04-30T15:48:46.381Z,16.60
2023-04-30T15:51:13.374Z,16.60
2023-04-30T15:53:40.149Z,16.90
2023-04-30T15:56:07.311Z,16.70
2023-04-30T15:58:34.129Z,16.80
2023-04-30T16:01:02.056Z,16.50
2023-04-30T16:03:29.286Z,16.30
2023-04-30T16:05:56.335Z,16.00
2023-04-30T16:08:23.223Z,15.70
2023-04-30T16:10:50.204Z,15.60
2023-04-30T16:13:16.975Z,16.00
2023-04-30T16:15:43.846Z,16.10
2023-04-30T16:18:10.631Z,16.20
2023-04-30T16:20:37.868Z,15.50
2023-04-30T16:23:05.829Z,15.20
2023-04-30T16:25:33.080Z,14.90
2023-04-30T16:27:59.995Z,14.80
2023-04-30T16:30:26.958Z,14.50
2023-04-30T16:32:54.014Z,14.30
2023-04-30T16:35:21.061Z,14.30
2023-04-30T16:37:47.946Z,14.50
2023-04-30T16:40:14.794Z,14.60
2023-04-30T16:42:41.598Z,14.60
2023-04-30T16:45:09.198Z,14.60
2023-04-30T16:47:36.221Z,14.60
2023-04-30T16:50:03.457Z,14.80
2023-04-30T16:52:30.957Z,14.80
2023-04-30T16:54:57.809Z,15.00
2023-04-30T16:57:25.481Z,14.70
2023-04-30T16:59:52.569Z,14.70
2023-04-30T17:02:19.535Z,14.70
2023-04-30T17:04:46.466Z,14.40
2023-04-30T17:07:13.614Z,14.60
2023-04-30T17:09:41.694Z,14.30
2023-04-30T17:12:08.629Z,14.30
2023-04-30T17:14:35.405Z,14.10
2023-04-30T17:17:02.383Z,14.10
2023-04-30T17:19:29.183Z,13.70
2023-04-30T17:21:56.182Z,13.50
2023-04-30T17:24:24.184Z,13.20
2023-04-30T17:26:51.530Z,13.00
2023-04-30T17:29:19.748Z,12.80
2023-04-30T17:31:47.263Z,12.50
2023-04-30T17:34:14.246Z,12.20
2023-04-30T17:36:42.000Z,12.10
2023-04-30T17:39:09.018Z,11.90
2023-04-30T17:41:35.966Z,11.70
2023-04-30T17:44:02.869Z,11.60
2023-04-30T17:46:29.651Z,11.40
2023-04-30T17:48:56.797Z,11.20
2023-04-30T17:51:24.062Z,11.10
2023-04-30T17:53:50.867Z,11.00
2023-04-30T17:56:17.731Z,10.90
2023-04-30T17:58:45.782Z,10.70
2023-04-30T18:01:13.419Z,10.60
2023-04-30T18:03:40.561Z,10.50
2023-04-30T18:06:07.588Z,10.40
2023-04-30T18:08:34.485Z,10.30
2023-04-30T18:11:03.889Z,10.20
2023-04-30T18:13:31.437Z,10.10
2023-04-30T18:15:58.494Z,10.00
2023-04-30T18:18:25.362Z,9.90
2023-04-30T18:20:53.093Z,9.80
2023-04-30T18:23:20.823Z,9.70
2023-04-30T18:25:48.013Z,9.60
2023-04-30T18:28:15.405Z,9.50
2023-04-30T18:30:42.168Z,9.40
2023-04-30T18:33:09.024Z,9.30
2023-04-30T18:35:36.365Z,9.20
2023-04-30T18:38:03.184Z,9.10
2023-04-30T18:40:30.985Z,9.00
2023-04-30T18:42:57.815Z,8.90
2023-04-30T18:45:24.690Z,8.80
2023-04-30T18:47:51.941Z,8.70
2023-04-30T18:50:19.560Z,8.60
2023-04-30T18:52:46.583Z,8.50
2023-04-30T18:55:14.178Z,8.40
2023-04-30T18:57:42.579Z,8.30
2023-04-30T19:00:10.796Z,8.20
2023-04-30T19:02:37.843Z,8.10
2023-04-30T19:05:05.206Z,8.10
2023-04-30T19:07:32.033Z,8.00
2023-04-30T19:09:58.976Z,7.90
2023-04-30T19:12:26.046Z,7.80
2023-04-30T19:14:52.901Z,7.70
2023-04-30T19:17:21.883Z,7.60
2023-04-30T19:19:50.092Z,7.50
2023-04-30T19:22:17.453Z,7.50
2023-04-30T19:24:44.359Z,7.40
2023-04-30T19:27:12.006Z,7.30
2023-04-30T19:29:39.555Z,7.30
2023-04-30T19:32:06.749Z,7.10
2023-04-30T19:34:34.472Z,7.00
2023-04-30T19:37:02.425Z,7.00
2023-04-30T19:39:31.484Z,6.90
2023-04-30T19:41:58.887Z,6.90
2023-04-30T19:44:26.058Z,6.80
2023-04-30T19:46:52.949Z,6.80
2023-04-30T19:49:19.719Z,6.70
2023-04-30T19:51:46.531Z,6.70
2023-04-30T19:54:14.412Z,6.60
2023-04-30T19:56:41.833Z,6.50
2023-04-30T19:59:09.345Z,6.40
2023-04-30T20:01:39.588Z,6.40
2023-04-30T20:04:06.874Z,6.30
2023-04-30T20:06:33.913Z,6.20
2023-04-30T20:09:01.648Z,6.20
2023-04-30T20:11:28.467Z,6.10
2023-04-30T20:13:56.292Z,6.10
2023-04-30T20:16:23.281Z,6.00
2023-04-30T20:18:50.121Z,5.90
2023-04-30T20:21:18.657Z,5.90
2023-04-30T20:23:47.233Z,5.90
2023-04-30T20:26:14.001Z,5.80
2023-04-30T20:28:40.847Z,5.70
2023-04-30T20:31:09.662Z,5.60
2023-04-30T20:33:36.544Z,5.50
2023-04-30T20:36:03.469Z,5.40
2023-04-30T20:38:30.329Z,5.40
2023-04-30T20:40:58.491Z,5.30
2023-04-30T20:43:25.319Z,5.30
2023-04-30T20:45:52.127Z,5.20
2023-04-30T20:48:19.057Z,5.10
2023-04-30T20:50:46.220Z,5.10
2023-04-30T20:53:14.207Z,5.00
2023-04-30T20:55:41.205Z,5.00
2023-04-30T20:58:09.102Z,5.00
2023-04-30T21:00:36.379Z,4.90
2023-04-30T21:03:03.404Z,4.90
2023-04-30T21:05:30.340Z,4.90
2023-04-30T21:08:01.259Z,4.80
2023-04-30T21:10:35.282Z,4.80
2023-04-30T21:13:05.152Z,4.70
2023-04-30T21:15:34.315Z,4.70
2023-04-30T21:18:01.326Z,4.60
2023-04-30T21:20:28.308Z,4.50
2023-04-30T21:22:56.539Z,4.50
2023-04-30T21:25:23.543Z,4.50
2023-04-30T21:27:50.447Z,4.40
2023-04-30T21:30:17.401Z,4.40
2023-04-30T21:32:48.059Z,4.40
2023-04-30T21:35:15.454Z,4.30
2023-04-30T21:37:42.447Z,4.20
2023-04-30T21:40:09.724Z,4.20
2023-04-30T21:42:36.651Z,4.10
2023-04-30T21:45:03.661Z,4.10
2023-04-30T21:47:30.793Z,4.00
2023-04-30T21:49:58.951Z,4.00
2023-04-30T21:52:26.166Z,3.90
2023-04-30T21:54:52.968Z,3.90
2023-04-30T21:57:19.734Z,3.80
2023-04-30T21:59:46.538Z,3.70
2023-04-30T22:04:47.596Z,3.60
2023-04-30T22:07:14.446Z,3.60
2023-04-30T22:09:41.224Z,3.50
2023-04-30T22:12:09.256Z,3.60
2023-04-30T22:14:36.065Z,3.50
2023-04-30T22:17:02.830Z,3.50
2023-04-30T22:19:29.652Z,3.50
2023-04-30T22:21:56.476Z,3.50
2023-04-30T22:24:23.332Z,3.50
2023-04-30T22:26:50.271Z,3.40
2023-04-30T22:29:17.074Z,3.40
2023-04-30T22:31:43.992Z,3.40
2023-04-30T22:34:11.567Z,3.40
2023-04-30T22:36:38.313Z,3.40
2023-04-30T22:39:05.143Z,3.40
2023-04-30T22:41:34.670Z,3.30
2023-04-30T22:44:01.729Z,3.30
2023-04-30T22:46:30.046Z,3.30
2023-04-30T22:48:57.655Z,3.20
2023-04-30T22:51:24.517Z,3.20
2023-04-30T22:53:51.653Z,3.20
2023-04-30T22:56:18.529Z,3.20
2023-04-30T22:58:45.315Z,3.10
2023-04-30T23:01:12.325Z,3.10
2023-04-30T23:03:39.303Z,3.00
2023-04-30T23:06:06.274Z,2.90
2023-04-30T23:08:33.158Z,2.80
2023-04-30T23:11:00.451Z,2.70
2023-04-30T23:13:27.201Z,2.70
2023-04-30T23:15:58.679Z,2.60
2023-04-30T23:18:26.184Z,2.50
2023-04-30T23:20:58.774Z,2.50
2023-04-30T23:23:26.611Z,2.50
2023-04-30T23:25:54.628Z,2.50
2023-04-30T23:28:21.865Z,2.50
2023-04-30T23:30:52.191Z,2.60
2023-04-30T23:33:19.754Z,2.60
2023-04-30T23:35:47.064Z,2.50
2023-04-30T23:38:14.832Z,2.60
2023-04-30T23:40:42.592Z,2.60
2023-04-30T23:43:10.136Z,2.60
2023-04-30T23:45:41.295Z,2.50
2023-04-30T23:48:09.143Z,2.50
2023-04-30T23:50:37.879Z,2.40
2023-04-30T23:53:04.719Z,2.30
2023-04-30T23:55:31.550Z,2.30
2023-04-30T23:57:58.434Z,2.30
